Brigham City, UT (84302)

5:54 PM MDT on October 24, 2014 (GMT -0600)
Center of B.C. K7UV | Change Station
CLOSE
Current Station
Personal Weather Station
Location: Brigham City, UT
Elevation: 4411 ft
Nearby Weather Stations

Elev 4411 ft 41.51 °N, 112.02 °W | Updated 4 minutes ago

Clear
Clear
66.0 °F
Feels Like 66.0 °F
N
0.0
Wind Variable Wind from WNW
Gusts 0.0 mph

Today
High -- | Low -- °F
--% Chance of Precip.
Yesterday
High -- | Low -- °F
Precip. -- in
7:50 AM 6:33 PM
New Moon, 1% visible
Pressure 30.10 in
Visibility 10.0 miles
Clouds Clear
Dew Point 39 °F
Humidity 37%
Rainfall 0.00 in
Snow Depth Not available.
UV 0 out of 12
Pollen 1.80 out of 12
PM2.5 Good
Flu Activity Sporadic
METAR KBMC 242335Z AUTO 34003KT 10SM CLR 23/00 A3010 RMK AO1 T02301003

More Conditions Fewer Conditions

Pressure 30.10 in
Visibility 10.0 miles
Clouds Clear
Dew Point 39 °F
Humidity 37%
Rainfall 0.00 in
Snow Depth Not available.
UV 0 out of 12
Pollen 1.80 out of 12
PM2.5 Good
Flu Activity Sporadic
METAR KBMC 242335Z AUTO 34003KT 10SM CLR 23/00 A3010 RMK AO1 T02301003

More Conditions Fewer Conditions

10-Day Weather Forecast

Almanac

Astronomy

Oct. 24, 2014 Rise Set
Actual Time 7:50 AM MDT 6:33 PM MDT
Civil Twilight 7:22 AM MDT 7:01 PM MDT
Nautical Twilight 6:49 AM MDT 7:34 PM MDT
Astronomical Twilight 6:17 AM MDT 8:06 PM MDT
Moon 8:33 AM MDT 7:15 PM MDT
Length of Visible Light 11h 39m
Length of Day
10h 42m
Tomorrow will be 2m 34s shorter.
New Moon, 1% of the Moon is Illuminated
Today
New Moon
Oct 30
First Quarter
Nov 6
Full
Nov 14
Last Quarter
Nov 22
New

Today's Extremes

State Highs State Lows

Community

WunderPhotos

Upload Photos

1,764,713 photos uploaded!

Nearby

Air Quality

  Air Quality AQ Index Pollutant
Yesterday Good
PM10
Yesterday Good
OZONE
Current Good
PM2.5
Friday Good
OZONE
Saturday Good
OZONE
Sunday Good
OZONE

Snow Depth

Station Depth Elevation
Temple Fork 0 in 7406 ft
Dry Fork 0 in 7160 ft
Chalk Creek #1 0 in 9100 ft
Smith & Morehouse 0 in 7600 ft
Trial Lake 0 in 9960 ft

Earthquake Activity

City Distance Mag. Time & Date
No recent earthquake activity has been reported nearby.
Minimum magnitude displayed is 2.5.

Coastal Water Temperatures

Place Temperature
No Stations Reporting

Nearby Weather Stations